sensor_id;sensor_type;location;lat;lon;timestamp;temperature;humidity
1468;DHT22;727;48.892;9.544;2024-01-25T00:00:32;9.40;99.90
1468;DHT22;727;48.892;9.544;2024-01-25T00:02:59;9.40;99.90
1468;DHT22;727;48.892;9.544;2024-01-25T00:05:25;9.40;99.90
1468;DHT22;727;48.892;9.544;2024-01-25T00:07:52;9.40;99.90
1468;DHT22;727;48.892;9.544;2024-01-25T00:10:19;9.40;99.90
1468;DHT22;727;48.892;9.544;2024-01-25T00:12:45;9.50;99.90
1468;DHT22;727;48.892;9.544;2024-01-25T00:15:13;9.60;99.90
1468;DHT22;727;48.892;9.544;2024-01-25T00:17:41;9.60;99.90
1468;DHT22;727;48.892;9.544;2024-01-25T00:20:10;9.60;99.90
1468;DHT22;727;48.892;9.544;2024-01-25T00:22:36;9.60;99.90
1468;DHT22;727;48.892;9.544;2024-01-25T00:25:04;9.60;99.90
1468;DHT22;727;48.892;9.544;2024-01-25T00:27:31;9.70;99.90
1468;DHT22;727;48.892;9.544;2024-01-25T00:29:58;9.60;99.90
1468;DHT22;727;48.892;9.544;2024-01-25T00:32:25;9.70;99.90
1468;DHT22;727;48.892;9.544;2024-01-25T00:34:54;9.70;99.90
1468;DHT22;727;48.892;9.544;2024-01-25T00:37:21;9.60;99.90
1468;DHT22;727;48.892;9.544;2024-01-25T00:39:48;9.50;99.90
1468;DHT22;727;48.892;9.544;2024-01-25T00:42:16;9.50;99.90
1468;DHT22;727;48.892;9.544;2024-01-25T00:44:43;9.40;99.90
1468;DHT22;727;48.892;9.544;2024-01-25T00:47:10;9.40;99.90
1468;DHT22;727;48.892;9.544;2024-01-25T00:49:38;9.40;99.90
1468;DHT22;727;48.892;9.544;2024-01-25T00:52:07;9.40;99.90
1468;DHT22;727;48.892;9.544;2024-01-25T00:54:34;9.40;99.90
1468;DHT22;727;48.892;9.544;2024-01-25T00:57:01;9.40;99.90
1468;DHT22;727;48.892;9.544;2024-01-25T00:59:28;9.50;99.90
1468;DHT22;727;48.892;9.544;2024-01-25T01:01:55;9.50;99.90
1468;DHT22;727;48.892;9.544;2024-01-25T01:04:25;9.60;99.90
1468;DHT22;727;48.892;9.544;2024-01-25T01:06:52;9.60;99.90
1468;DHT22;727;48.892;9.544;2024-01-25T01:09:20;9.60;99.90
1468;DHT22;727;48.892;9.544;2024-01-25T01:11:47;9.60;99.90
1468;DHT22;727;48.892;9.544;2024-01-25T01:14:12;9.60;99.90
1468;DHT22;727;48.892;9.544;2024-01-25T01:16:39;9.60;99.90
1468;DHT22;727;48.892;9.544;2024-01-25T01:19:06;9.60;99.90
1468;DHT22;727;48.892;9.544;2024-01-25T01:21:33;9.50;99.90
1468;DHT22;727;48.892;9.544;2024-01-25T01:24:00;9.50;99.90
1468;DHT22;727;48.892;9.544;2024-01-25T01:26:29;9.40;99.90
1468;DHT22;727;48.892;9.544;2024-01-25T01:28:56;9.40;99.90
1468;DHT22;727;48.892;9.544;2024-01-25T01:31:23;9.40;99.90
1468;DHT22;727;48.892;9.544;2024-01-25T01:33:49;9.40;99.90
1468;DHT22;727;48.892;9.544;2024-01-25T01:36:16;9.30;99.90
1468;DHT22;727;48.892;9.544;2024-01-25T01:38:43;9.30;99.90
1468;DHT22;727;48.892;9.544;2024-01-25T01:41:10;9.40;99.90
1468;DHT22;727;48.892;9.544;2024-01-25T01:43:39;9.30;99.90
1468;DHT22;727;48.892;9.544;2024-01-25T01:46:10;9.40;99.90
1468;DHT22;727;48.892;9.544;2024-01-25T01:48:38;9.50;99.90
1468;DHT22;727;48.892;9.544;2024-01-25T01:51:05;9.60;99.90
1468;DHT22;727;48.892;9.544;2024-01-25T01:53:32;9.70;99.90
1468;DHT22;727;48.892;9.544;2024-01-25T01:55:59;9.70;99.90
1468;DHT22;727;48.892;9.544;2024-01-25T01:58:27;9.70;99.90
1468;DHT22;727;48.892;9.544;2024-01-25T02:01:04;9.70;99.90
1468;DHT22;727;48.892;9.544;2024-01-25T02:03:31;9.70;99.90
1468;DHT22;727;48.892;9.544;2024-01-25T02:05:58;9.80;99.90
1468;DHT22;727;48.892;9.544;2024-01-25T02:08:28;9.80;99.90
1468;DHT22;727;48.892;9.544;2024-01-25T02:10:54;9.80;99.90
1468;DHT22;727;48.892;9.544;2024-01-25T02:13:21;9.70;99.90
1468;DHT22;727;48.892;9.544;2024-01-25T02:15:48;9.70;99.90
1468;DHT22;727;48.892;9.544;2024-01-25T02:18:16;9.70;99.90
1468;DHT22;727;48.892;9.544;2024-01-25T02:20:43;9.70;99.90
1468;DHT22;727;48.892;9.544;2024-01-25T02:23:11;9.70;99.90
1468;DHT22;727;48.892;9.544;2024-01-25T02:25:38;9.70;99.90
1468;DHT22;727;48.892;9.544;2024-01-25T02:28:05;9.80;99.90
1468;DHT22;727;48.892;9.544;2024-01-25T02:30:32;9.80;99.90
1468;DHT22;727;48.892;9.544;2024-01-25T02:32:59;9.70;99.90
1468;DHT22;727;48.892;9.544;2024-01-25T02:35:25;9.70;99.90
1468;DHT22;727;48.892;9.544;2024-01-25T02:37:52;9.70;99.90
1468;DHT22;727;48.892;9.544;2024-01-25T02:40:20;9.70;99.90
1468;DHT22;727;48.892;9.544;2024-01-25T02:42:47;9.60;99.90
1468;DHT22;727;48.892;9.544;2024-01-25T02:45:13;9.70;99.90
1468;DHT22;727;48.892;9.544;2024-01-25T02:47:40;9.70;99.90
1468;DHT22;727;48.892;9.544;2024-01-25T02:50:08;9.60;99.90
1468;DHT22;727;48.892;9.544;2024-01-25T02:52:34;9.70;99.90
1468;DHT22;727;48.892;9.544;2024-01-25T02:55:01;9.60;99.90
1468;DHT22;727;48.892;9.544;2024-01-25T02:57:29;9.60;99.90
1468;DHT22;727;48.892;9.544;2024-01-25T02:59:57;9.60;99.90
1468;DHT22;727;48.892;9.544;2024-01-25T03:02:24;9.60;99.90
1468;DHT22;727;48.892;9.544;2024-01-25T03:04:51;9.60;99.90
1468;DHT22;727;48.892;9.544;2024-01-25T03:07:18;9.60;99.90
1468;DHT22;727;48.892;9.544;2024-01-25T03:09:44;9.60;99.90
1468;DHT22;727;48.892;9.544;2024-01-25T03:12:11;9.60;99.90
1468;DHT22;727;48.892;9.544;2024-01-25T03:14:38;9.60;99.90
1468;DHT22;727;48.892;9.544;2024-01-25T03:17:05;9.60;99.90
1468;DHT22;727;48.892;9.544;2024-01-25T03:19:32;9.60;99.90
1468;DHT22;727;48.892;9.544;2024-01-25T03:21:59;9.70;99.90
1468;DHT22;727;48.892;9.544;2024-01-25T03:24:27;9.70;99.90
1468;DHT22;727;48.892;9.544;2024-01-25T03:26:54;9.70;99.90
1468;DHT22;727;48.892;9.544;2024-01-25T03:29:20;9.60;99.90
1468;DHT22;727;48.892;9.544;2024-01-25T03:31:48;9.60;99.90
1468;DHT22;727;48.892;9.544;2024-01-25T03:34:15;9.60;99.90
1468;DHT22;727;48.892;9.544;2024-01-25T03:36:42;9.60;99.90
1468;DHT22;727;48.892;9.544;2024-01-25T03:39:08;9.60;99.90
1468;DHT22;727;48.892;9.544;2024-01-25T03:41:35;9.60;99.90
1468;DHT22;727;48.892;9.544;2024-01-25T03:44:02;9.60;99.90
1468;DHT22;727;48.892;9.544;2024-01-25T03:46:28;9.50;99.90
1468;DHT22;727;48.892;9.544;2024-01-25T03:48:56;9.50;99.90
1468;DHT22;727;48.892;9.544;2024-01-25T03:51:23;9.50;99.90
1468;DHT22;727;48.892;9.544;2024-01-25T03:53:50;9.50;99.90
1468;DHT22;727;48.892;9.544;2024-01-25T03:56:18;9.50;99.90
1468;DHT22;727;48.892;9.544;2024-01-25T03:58:45;9.50;99.90
1468;DHT22;727;48.892;9.544;2024-01-25T04:01:12;9.50;99.90
1468;DHT22;727;48.892;9.544;2024-01-25T04:03:38;9.50;99.90
1468;DHT22;727;48.892;9.544;2024-01-25T04:06:06;9.50;99.90
1468;DHT22;727;48.892;9.544;2024-01-25T04:08:32;9.40;99.90
1468;DHT22;727;48.892;9.544;2024-01-25T04:10:59;9.50;99.90
1468;DHT22;727;48.892;9.544;2024-01-25T04:13:26;9.40;99.90
1468;DHT22;727;48.892;9.544;2024-01-25T04:15:53;9.30;99.90
1468;DHT22;727;48.892;9.544;2024-01-25T04:18:19;9.30;99.90
1468;DHT22;727;48.892;9.544;2024-01-25T04:20:46;9.30;99.90
1468;DHT22;727;48.892;9.544;2024-01-25T04:23:14;9.30;99.90
1468;DHT22;727;48.892;9.544;2024-01-25T04:25:41;9.20;99.90
1468;DHT22;727;48.892;9.544;2024-01-25T04:28:08;9.10;99.90
1468;DHT22;727;48.892;9.544;2024-01-25T04:30:34;9.00;99.90
1468;DHT22;727;48.892;9.544;2024-01-25T04:33:03;9.10;99.90
1468;DHT22;727;48.892;9.544;2024-01-25T04:35:30;9.10;99.90
1468;DHT22;727;48.892;9.544;2024-01-25T04:37:57;9.10;99.90
1468;DHT22;727;48.892;9.544;2024-01-25T04:40:25;9.10;99.90
1468;DHT22;727;48.892;9.544;2024-01-25T04:42:51;9.20;99.90
1468;DHT22;727;48.892;9.544;2024-01-25T04:45:18;9.20;99.90
1468;DHT22;727;48.892;9.544;2024-01-25T04:47:45;9.20;99.90
1468;DHT22;727;48.892;9.544;2024-01-25T04:50:11;9.20;99.90
1468;DHT22;727;48.892;9.544;2024-01-25T04:52:38;9.20;99.90
1468;DHT22;727;48.892;9.544;2024-01-25T04:55:05;9.20;99.90
1468;DHT22;727;48.892;9.544;2024-01-25T04:57:33;9.10;99.90
1468;DHT22;727;48.892;9.544;2024-01-25T05:00:00;9.10;99.90
1468;DHT22;727;48.892;9.544;2024-01-25T05:02:27;9.10;99.90
1468;DHT22;727;48.892;9.544;2024-01-25T05:04:53;9.10;99.90
1468;DHT22;727;48.892;9.544;2024-01-25T05:07:20;9.00;99.90
1468;DHT22;727;48.892;9.544;2024-01-25T05:09:47;9.00;99.90
1468;DHT22;727;48.892;9.544;2024-01-25T05:12:14;9.00;99.90
1468;DHT22;727;48.892;9.544;2024-01-25T05:14:42;9.00;99.90
1468;DHT22;727;48.892;9.544;2024-01-25T05:17:09;8.90;99.90
1468;DHT22;727;48.892;9.544;2024-01-25T05:19:35;8.90;99.90
1468;DHT22;727;48.892;9.544;2024-01-25T05:22:02;8.90;99.90
1468;DHT22;727;48.892;9.544;2024-01-25T05:24:31;8.90;99.90
1468;DHT22;727;48.892;9.544;2024-01-25T05:26:58;8.90;99.90
1468;DHT22;727;48.892;9.544;2024-01-25T05:29:25;8.90;99.90
1468;DHT22;727;48.892;9.544;2024-01-25T05:31:53;8.90;99.90
1468;DHT22;727;48.892;9.544;2024-01-25T05:34:19;8.90;99.90
1468;DHT22;727;48.892;9.544;2024-01-25T05:36:46;8.90;99.90
1468;DHT22;727;48.892;9.544;2024-01-25T05:39:13;8.90;99.90
1468;DHT22;727;48.892;9.544;2024-01-25T05:41:40;8.90;99.90
1468;DHT22;727;48.892;9.544;2024-01-25T05:44:06;8.90;99.90
1468;DHT22;727;48.892;9.544;2024-01-25T05:46:33;8.90;99.90
1468;DHT22;727;48.892;9.544;2024-01-25T05:49:01;8.90;99.90
1468;DHT22;727;48.892;9.544;2024-01-25T05:51:28;8.80;99.90
1468;DHT22;727;48.892;9.544;2024-01-25T05:53:54;8.80;99.90
1468;DHT22;727;48.892;9.544;2024-01-25T05:56:21;8.80;99.90
1468;DHT22;727;48.892;9.544;2024-01-25T05:58:48;8.80;99.90
1468;DHT22;727;48.892;9.544;2024-01-25T06:01:15;8.80;99.90
1468;DHT22;727;48.892;9.544;2024-01-25T06:03:42;8.80;99.90
1468;DHT22;727;48.892;9.544;2024-01-25T06:06:10;8.80;99.90
1468;DHT22;727;48.892;9.544;2024-01-25T06:08:36;8.80;99.90
1468;DHT22;727;48.892;9.544;2024-01-25T06:11:03;8.70;99.90
1468;DHT22;727;48.892;9.544;2024-01-25T06:13:31;8.70;99.90
1468;DHT22;727;48.892;9.544;2024-01-25T06:15:57;8.80;99.90
1468;DHT22;727;48.892;9.544;2024-01-25T06:18:25;8.70;99.90
1468;DHT22;727;48.892;9.544;2024-01-25T06:20:51;8.60;99.90
1468;DHT22;727;48.892;9.544;2024-01-25T06:23:19;8.70;99.90
1468;DHT22;727;48.892;9.544;2024-01-25T06:25:46;8.70;99.90
1468;DHT22;727;48.892;9.544;2024-01-25T06:28:13;8.70;99.90
1468;DHT22;727;48.892;9.544;2024-01-25T06:30:40;8.70;99.90
1468;DHT22;727;48.892;9.544;2024-01-25T06:33:06;8.60;99.90
1468;DHT22;727;48.892;9.544;2024-01-25T06:35:33;8.70;99.90
1468;DHT22;727;48.892;9.544;2024-01-25T06:38:00;8.50;99.90
1468;DHT22;727;48.892;9.544;2024-01-25T06:40:28;8.40;99.90
1468;DHT22;727;48.892;9.544;2024-01-25T06:42:54;8.40;99.90
1468;DHT22;727;48.892;9.544;2024-01-25T06:45:21;8.30;99.90
1468;DHT22;727;48.892;9.544;2024-01-25T06:47:48;8.20;99.90
1468;DHT22;727;48.892;9.544;2024-01-25T06:50:15;8.30;99.90
1468;DHT22;727;48.892;9.544;2024-01-25T06:52:42;8.30;99.90
1468;DHT22;727;48.892;9.544;2024-01-25T06:55:09;8.20;99.90
1468;DHT22;727;48.892;9.544;2024-01-25T06:57:38;8.20;99.90
1468;DHT22;727;48.892;9.544;2024-01-25T07:00:07;8.20;99.90
1468;DHT22;727;48.892;9.544;2024-01-25T07:02:36;8.20;99.90
1468;DHT22;727;48.892;9.544;2024-01-25T07:05:03;8.20;99.90
1468;DHT22;727;48.892;9.544;2024-01-25T07:07:30;8.30;99.90
1468;DHT22;727;48.892;9.544;2024-01-25T07:09:58;8.30;99.90
1468;DHT22;727;48.892;9.544;2024-01-25T07:12:25;8.30;99.90
1468;DHT22;727;48.892;9.544;2024-01-25T07:14:53;8.20;99.90
1468;DHT22;727;48.892;9.544;2024-01-25T07:17:20;8.20;99.90
1468;DHT22;727;48.892;9.544;2024-01-25T07:19:47;8.10;99.90
1468;DHT22;727;48.892;9.544;2024-01-25T07:22:13;8.20;99.90
1468;DHT22;727;48.892;9.544;2024-01-25T07:24:41;8.20;99.90
1468;DHT22;727;48.892;9.544;2024-01-25T07:27:09;8.30;99.90
1468;DHT22;727;48.892;9.544;2024-01-25T07:29:36;8.30;99.90
1468;DHT22;727;48.892;9.544;2024-01-25T07:32:07;8.40;99.90
1468;DHT22;727;48.892;9.544;2024-01-25T07:34:34;8.40;99.90
1468;DHT22;727;48.892;9.544;2024-01-25T07:37:01;8.40;99.90
1468;DHT22;727;48.892;9.544;2024-01-25T07:39:28;8.40;99.90
1468;DHT22;727;48.892;9.544;2024-01-25T07:41:55;8.40;99.90
1468;DHT22;727;48.892;9.544;2024-01-25T07:44:22;8.40;99.90
1468;DHT22;727;48.892;9.544;2024-01-25T07:46:49;8.40;99.90
1468;DHT22;727;48.892;9.544;2024-01-25T07:49:17;8.40;99.90
1468;DHT22;727;48.892;9.544;2024-01-25T07:51:44;8.50;99.90
1468;DHT22;727;48.892;9.544;2024-01-25T07:54:11;8.50;99.90
1468;DHT22;727;48.892;9.544;2024-01-25T07:56:37;8.50;99.90
1468;DHT22;727;48.892;9.544;2024-01-25T07:59:04;8.50;99.90
1468;DHT22;727;48.892;9.544;2024-01-25T08:01:30;8.60;99.90
1468;DHT22;727;48.892;9.544;2024-01-25T08:03:57;8.70;99.90
1468;DHT22;727;48.892;9.544;2024-01-25T08:06:26;8.80;99.90
1468;DHT22;727;48.892;9.544;2024-01-25T08:08:53;8.80;99.90
1468;DHT22;727;48.892;9.544;2024-01-25T08:11:20;8.80;99.90
1468;DHT22;727;48.892;9.544;2024-01-25T08:13:46;8.80;99.90
1468;DHT22;727;48.892;9.544;2024-01-25T08:16:14;8.90;99.90
1468;DHT22;727;48.892;9.544;2024-01-25T08:18:44;8.90;99.90
1468;DHT22;727;48.892;9.544;2024-01-25T08:21:11;9.00;99.90
1468;DHT22;727;48.892;9.544;2024-01-25T08:23:39;9.10;99.90
1468;DHT22;727;48.892;9.544;2024-01-25T08:26:07;9.20;99.90
1468;DHT22;727;48.892;9.544;2024-01-25T08:28:35;9.30;99.90
1468;DHT22;727;48.892;9.544;2024-01-25T08:31:02;9.30;99.90
1468;DHT22;727;48.892;9.544;2024-01-25T08:33:28;9.50;99.90
1468;DHT22;727;48.892;9.544;2024-01-25T08:35:55;9.50;99.90
1468;DHT22;727;48.892;9.544;2024-01-25T08:38:22;9.60;99.90
1468;DHT22;727;48.892;9.544;2024-01-25T08:40:50;9.60;99.90
1468;DHT22;727;48.892;9.544;2024-01-25T08:43:17;9.60;99.90
1468;DHT22;727;48.892;9.544;2024-01-25T08:45:44;9.70;99.90
1468;DHT22;727;48.892;9.544;2024-01-25T08:48:10;9.90;99.90
1468;DHT22;727;48.892;9.544;2024-01-25T08:50:38;10.10;99.90
1468;DHT22;727;48.892;9.544;2024-01-25T08:53:06;10.10;99.90
1468;DHT22;727;48.892;9.544;2024-01-25T08:55:33;10.20;99.90
1468;DHT22;727;48.892;9.544;2024-01-25T08:58:01;10.20;99.90
1468;DHT22;727;48.892;9.544;2024-01-25T09:00:27;10.20;99.90
1468;DHT22;727;48.892;9.544;2024-01-25T09:02:54;10.20;99.90
1468;DHT22;727;48.892;9.544;2024-01-25T09:05:21;10.20;99.90
1468;DHT22;727;48.892;9.544;2024-01-25T09:07:48;10.20;99.90
1468;DHT22;727;48.892;9.544;2024-01-25T09:10:16;10.20;99.90
1468;DHT22;727;48.892;9.544;2024-01-25T09:12:42;10.20;99.90
1468;DHT22;727;48.892;9.544;2024-01-25T09:15:11;10.30;99.90
1468;DHT22;727;48.892;9.544;2024-01-25T09:17:37;10.30;99.90
1468;DHT22;727;48.892;9.544;2024-01-25T09:20:06;10.30;99.90
1468;DHT22;727;48.892;9.544;2024-01-25T09:22:32;10.20;99.90
1468;DHT22;727;48.892;9.544;2024-01-25T09:24:59;10.20;99.90
1468;DHT22;727;48.892;9.544;2024-01-25T09:27:26;10.30;99.90
1468;DHT22;727;48.892;9.544;2024-01-25T09:29:52;10.50;99.90
1468;DHT22;727;48.892;9.544;2024-01-25T09:32:20;10.80;99.90
1468;DHT22;727;48.892;9.544;2024-01-25T09:34:47;11.10;99.90
1468;DHT22;727;48.892;9.544;2024-01-25T09:37:16;11.50;99.90
1468;DHT22;727;48.892;9.544;2024-01-25T09:39:45;11.60;99.90
1468;DHT22;727;48.892;9.544;2024-01-25T09:42:11;11.30;99.90
1468;DHT22;727;48.892;9.544;2024-01-25T09:44:40;11.00;99.90
1468;DHT22;727;48.892;9.544;2024-01-25T09:47:06;10.90;99.90
1468;DHT22;727;48.892;9.544;2024-01-25T09:49:35;11.00;99.90
1468;DHT22;727;48.892;9.544;2024-01-25T09:52:03;11.40;99.90
1468;DHT22;727;48.892;9.544;2024-01-25T09:54:31;11.40;99.90
1468;DHT22;727;48.892;9.544;2024-01-25T09:57:03;11.50;99.90
1468;DHT22;727;48.892;9.544;2024-01-25T09:59:32;12.60;99.90
1468;DHT22;727;48.892;9.544;2024-01-25T10:02:01;13.10;98.60
1468;DHT22;727;48.892;9.544;2024-01-25T10:04:28;12.70;98.10
1468;DHT22;727;48.892;9.544;2024-01-25T10:06:56;12.80;99.00
1468;DHT22;727;48.892;9.544;2024-01-25T10:09:24;13.90;97.30
1468;DHT22;727;48.892;9.544;2024-01-25T10:11:52;13.80;96.00
1468;DHT22;727;48.892;9.544;2024-01-25T10:14:19;13.70;95.80
1468;DHT22;727;48.892;9.544;2024-01-25T10:16:45;13.40;96.40
1468;DHT22;727;48.892;9.544;2024-01-25T10:19:12;13.90;96.10
1468;DHT22;727;48.892;9.544;2024-01-25T10:21:41;14.60;94.50
1468;DHT22;727;48.892;9.544;2024-01-25T10:24:09;14.20;94.20
1468;DHT22;727;48.892;9.544;2024-01-25T10:26:36;13.80;94.60
1468;DHT22;727;48.892;9.544;2024-01-25T10:29:03;13.70;94.70
1468;DHT22;727;48.892;9.544;2024-01-25T10:31:30;13.70;95.10
1468;DHT22;727;48.892;9.544;2024-01-25T10:33:57;13.50;95.10
1468;DHT22;727;48.892;9.544;2024-01-25T10:36:26;13.10;95.30
1468;DHT22;727;48.892;9.544;2024-01-25T10:38:54;12.70;95.60
1468;DHT22;727;48.892;9.544;2024-01-25T10:41:23;12.40;95.90
1468;DHT22;727;48.892;9.544;2024-01-25T10:43:50;12.10;96.20
1468;DHT22;727;48.892;9.544;2024-01-25T10:46:17;12.60;96.70
1468;DHT22;727;48.892;9.544;2024-01-25T10:48:45;13.50;95.60
1468;DHT22;727;48.892;9.544;2024-01-25T10:51:12;14.00;93.80
1468;DHT22;727;48.892;9.544;2024-01-25T10:53:44;14.70;93.70
1468;DHT22;727;48.892;9.544;2024-01-25T10:56:11;15.40;92.20
1468;DHT22;727;48.892;9.544;2024-01-25T10:58:41;15.70;92.20
1468;DHT22;727;48.892;9.544;2024-01-25T11:01:08;16.40;90.80
1468;DHT22;727;48.892;9.544;2024-01-25T11:03:38;17.30;88.20
1468;DHT22;727;48.892;9.544;2024-01-25T11:06:09;18.50;83.30
1468;DHT22;727;48.892;9.544;2024-01-25T11:08:36;19.50;78.50
1468;DHT22;727;48.892;9.544;2024-01-25T11:11:06;20.00;74.80
1468;DHT22;727;48.892;9.544;2024-01-25T11:13:34;20.50;73.40
1468;DHT22;727;48.892;9.544;2024-01-25T11:16:13;21.60;70.50
1468;DHT22;727;48.892;9.544;2024-01-25T11:18:49;21.90;66.00
1468;DHT22;727;48.892;9.544;2024-01-25T11:21:26;21.60;65.20
1468;DHT22;727;48.892;9.544;2024-01-25T11:24:00;19.90;66.10
1468;DHT22;727;48.892;9.544;2024-01-25T11:26:27;18.10;71.10
1468;DHT22;727;48.892;9.544;2024-01-25T11:28:55;16.90;75.00
1468;DHT22;727;48.892;9.544;2024-01-25T11:31:27;16.70;76.60
1468;DHT22;727;48.892;9.544;2024-01-25T11:33:57;16.90;77.80
1468;DHT22;727;48.892;9.544;2024-01-25T11:36:24;17.60;77.40
1468;DHT22;727;48.892;9.544;2024-01-25T11:38:51;18.70;74.80
1468;DHT22;727;48.892;9.544;2024-01-25T11:41:18;19.50;72.00
1468;DHT22;727;48.892;9.544;2024-01-25T11:43:45;19.10;71.00
1468;DHT22;727;48.892;9.544;2024-01-25T11:46:12;18.90;71.90
1468;DHT22;727;48.892;9.544;2024-01-25T11:48:41;19.10;72.10
1468;DHT22;727;48.892;9.544;2024-01-25T11:51:09;19.20;73.10
1468;DHT22;727;48.892;9.544;2024-01-25T11:53:36;19.80;71.20
1468;DHT22;727;48.892;9.544;2024-01-25T11:56:05;20.00;70.90
1468;DHT22;727;48.892;9.544;2024-01-25T11:58:33;20.00;69.90
1468;DHT22;727;48.892;9.544;2024-01-25T12:01:00;19.90;68.60
1468;DHT22;727;48.892;9.544;2024-01-25T12:03:27;19.30;70.90
1468;DHT22;727;48.892;9.544;2024-01-25T12:05:55;18.60;74.70
1468;DHT22;727;48.892;9.544;2024-01-25T12:08:24;18.20;73.80
1468;DHT22;727;48.892;9.544;2024-01-25T12:10:51;18.20;73.40
1468;DHT22;727;48.892;9.544;2024-01-25T12:13:28;18.20;73.80
1468;DHT22;727;48.892;9.544;2024-01-25T12:15:57;18.30;73.20
1468;DHT22;727;48.892;9.544;2024-01-25T12:18:25;18.50;72.70
1468;DHT22;727;48.892;9.544;2024-01-25T12:20:52;18.30;72.40
1468;DHT22;727;48.892;9.544;2024-01-25T12:23:21;18.20;72.70
1468;DHT22;727;48.892;9.544;2024-01-25T12:25:48;18.70;73.20
1468;DHT22;727;48.892;9.544;2024-01-25T12:28:14;19.30;69.70
1468;DHT22;727;48.892;9.544;2024-01-25T12:30:41;19.70;68.30
1468;DHT22;727;48.892;9.544;2024-01-25T12:33:08;19.70;69.40
1468;DHT22;727;48.892;9.544;2024-01-25T12:35:36;19.00;71.80
1468;DHT22;727;48.892;9.544;2024-01-25T12:38:03;19.30;72.20
1468;DHT22;727;48.892;9.544;2024-01-25T12:40:31;19.50;70.40
1468;DHT22;727;48.892;9.544;2024-01-25T12:42:58;19.60;69.50
1468;DHT22;727;48.892;9.544;2024-01-25T12:45:24;18.40;71.80
1468;DHT22;727;48.892;9.544;2024-01-25T12:47:51;17.30;73.70
1468;DHT22;727;48.892;9.544;2024-01-25T12:50:18;16.60;76.50
1468;DHT22;727;48.892;9.544;2024-01-25T12:52:45;16.00;78.80
1468;DHT22;727;48.892;9.544;2024-01-25T12:55:12;16.10;79.30
1468;DHT22;727;48.892;9.544;2024-01-25T12:57:40;16.00;79.90
1468;DHT22;727;48.892;9.544;2024-01-25T13:00:08;15.70;80.60
1468;DHT22;727;48.892;9.544;2024-01-25T13:02:35;15.50;80.80
1468;DHT22;727;48.892;9.544;2024-01-25T13:05:02;15.20;81.90
1468;DHT22;727;48.892;9.544;2024-01-25T13:07:29;15.00;82.90
1468;DHT22;727;48.892;9.544;2024-01-25T13:09:55;14.90;84.00
1468;DHT22;727;48.892;9.544;2024-01-25T13:12:22;15.80;82.90
1468;DHT22;727;48.892;9.544;2024-01-25T13:14:52;16.70;79.60
1468;DHT22;727;48.892;9.544;2024-01-25T13:17:18;16.80;78.00
1468;DHT22;727;48.892;9.544;2024-01-25T13:19:46;15.80;79.40
1468;DHT22;727;48.892;9.544;2024-01-25T13:22:14;15.20;81.30
1468;DHT22;727;48.892;9.544;2024-01-25T13:24:42;14.80;82.80
1468;DHT22;727;48.892;9.544;2024-01-25T13:27:08;14.40;84.00
1468;DHT22;727;48.892;9.544;2024-01-25T13:29:35;14.30;84.80
1468;DHT22;727;48.892;9.544;2024-01-25T13:32:04;14.40;84.90
1468;DHT22;727;48.892;9.544;2024-01-25T13:34:30;15.20;84.40
1468;DHT22;727;48.892;9.544;2024-01-25T13:36:57;16.50;80.70
1468;DHT22;727;48.892;9.544;2024-01-25T13:39:24;17.00;77.00
1468;DHT22;727;48.892;9.544;2024-01-25T13:41:51;17.60;74.90
1468;DHT22;727;48.892;9.544;2024-01-25T13:44:17;18.10;72.50
1468;DHT22;727;48.892;9.544;2024-01-25T13:46:44;18.00;70.20
1468;DHT22;727;48.892;9.544;2024-01-25T13:49:12;17.70;72.00
1468;DHT22;727;48.892;9.544;2024-01-25T13:51:39;17.90;71.20
1468;DHT22;727;48.892;9.544;2024-01-25T13:54:06;18.50;68.00
1468;DHT22;727;48.892;9.544;2024-01-25T13:56:32;18.50;67.70
1468;DHT22;727;48.892;9.544;2024-01-25T13:58:59;18.40;67.90
1468;DHT22;727;48.892;9.544;2024-01-25T14:01:26;18.20;68.80
1468;DHT22;727;48.892;9.544;2024-01-25T14:03:53;18.30;68.60
1468;DHT22;727;48.892;9.544;2024-01-25T14:06:21;18.60;67.40
1468;DHT22;727;48.892;9.544;2024-01-25T14:08:47;18.40;67.70
1468;DHT22;727;48.892;9.544;2024-01-25T14:11:15;18.00;67.70
1468;DHT22;727;48.892;9.544;2024-01-25T14:13:42;17.90;68.70
1468;DHT22;727;48.892;9.544;2024-01-25T14:16:08;17.50;69.50
1468;DHT22;727;48.892;9.544;2024-01-25T14:18:42;17.40;70.50
1468;DHT22;727;48.892;9.544;2024-01-25T14:21:09;17.10;71.70
1468;DHT22;727;48.892;9.544;2024-01-25T14:23:37;16.60;72.60
1468;DHT22;727;48.892;9.544;2024-01-25T14:26:02;16.10;74.30
1468;DHT22;727;48.892;9.544;2024-01-25T14:28:29;15.60;76.00
1468;DHT22;727;48.892;9.544;2024-01-25T14:30:56;15.20;77.60
1468;DHT22;727;48.892;9.544;2024-01-25T14:33:22;14.80;79.20
1468;DHT22;727;48.892;9.544;2024-01-25T14:35:50;14.40;80.50
1468;DHT22;727;48.892;9.544;2024-01-25T14:38:16;14.00;81.30
1468;DHT22;727;48.892;9.544;2024-01-25T14:40:45;13.90;82.80
1468;DHT22;727;48.892;9.544;2024-01-25T14:43:11;13.80;84.00
1468;DHT22;727;48.892;9.544;2024-01-25T14:45:38;13.50;84.30
1468;DHT22;727;48.892;9.544;2024-01-25T14:48:05;13.40;85.60
1468;DHT22;727;48.892;9.544;2024-01-25T14:50:32;13.20;86.20
1468;DHT22;727;48.892;9.544;2024-01-25T14:52:59;13.10;86.30
1468;DHT22;727;48.892;9.544;2024-01-25T14:55:26;12.90;86.70
1468;DHT22;727;48.892;9.544;2024-01-25T14:57:54;12.80;87.50
1468;DHT22;727;48.892;9.544;2024-01-25T15:00:21;12.60;88.00
1468;DHT22;727;48.892;9.544;2024-01-25T15:02:47;12.40;88.50
1468;DHT22;727;48.892;9.544;2024-01-25T15:05:15;12.30;89.60
1468;DHT22;727;48.892;9.544;2024-01-25T15:07:41;12.10;89.40
1468;DHT22;727;48.892;9.544;2024-01-25T15:10:09;12.00;90.20
1468;DHT22;727;48.892;9.544;2024-01-25T15:12:35;11.80;90.50
1468;DHT22;727;48.892;9.544;2024-01-25T15:15:04;11.70;90.80
1468;DHT22;727;48.892;9.544;2024-01-25T15:17:31;11.60;91.10
1468;DHT22;727;48.892;9.544;2024-01-25T15:19:57;11.40;91.50
1468;DHT22;727;48.892;9.544;2024-01-25T15:22:24;11.30;91.60
1468;DHT22;727;48.892;9.544;2024-01-25T15:24:52;11.10;92.10
1468;DHT22;727;48.892;9.544;2024-01-25T15:27:19;10.90;92.50
1468;DHT22;727;48.892;9.544;2024-01-25T15:29:45;10.80;92.90
1468;DHT22;727;48.892;9.544;2024-01-25T15:32:13;10.60;93.20
1468;DHT22;727;48.892;9.544;2024-01-25T15:34:40;10.50;93.40
1468;DHT22;727;48.892;9.544;2024-01-25T15:37:07;10.30;93.80
1468;DHT22;727;48.892;9.544;2024-01-25T15:39:34;10.10;94.20
1468;DHT22;727;48.892;9.544;2024-01-25T15:42:01;10.00;94.70
1468;DHT22;727;48.892;9.544;2024-01-25T15:44:27;9.80;95.40
1468;DHT22;727;48.892;9.544;2024-01-25T15:46:54;9.60;95.70
1468;DHT22;727;48.892;9.544;2024-01-25T15:49:22;9.50;96.00
1468;DHT22;727;48.892;9.544;2024-01-25T15:51:49;9.30;96.50
1468;DHT22;727;48.892;9.544;2024-01-25T15:54:16;9.10;97.00
1468;DHT22;727;48.892;9.544;2024-01-25T15:56:42;9.00;97.30
1468;DHT22;727;48.892;9.544;2024-01-25T15:59:10;8.80;97.70
1468;DHT22;727;48.892;9.544;2024-01-25T16:01:36;8.70;98.40
1468;DHT22;727;48.892;9.544;2024-01-25T16:04:03;8.60;98.90
1468;DHT22;727;48.892;9.544;2024-01-25T16:06:31;8.60;99.40
1468;DHT22;727;48.892;9.544;2024-01-25T16:09:00;8.50;99.80
1468;DHT22;727;48.892;9.544;2024-01-25T16:11:27;8.50;99.90
1468;DHT22;727;48.892;9.544;2024-01-25T16:13:54;8.40;99.90
1468;DHT22;727;48.892;9.544;2024-01-25T16:16:21;8.40;99.90
1468;DHT22;727;48.892;9.544;2024-01-25T16:18:48;8.50;99.90
1468;DHT22;727;48.892;9.544;2024-01-25T16:21:14;8.50;99.90
1468;DHT22;727;48.892;9.544;2024-01-25T16:23:42;8.40;99.90
1468;DHT22;727;48.892;9.544;2024-01-25T16:26:09;8.40;99.90